createdAt,value
2023-02-03T00:00:59.125Z,98584.75
2023-02-03T00:03:25.963Z,98571.88
2023-02-03T00:05:52.708Z,98580.03
2023-02-03T00:08:19.845Z,98580.78
2023-02-03T00:10:46.706Z,98586.72
2023-02-03T00:13:15.225Z,98582.31
2023-02-03T00:15:41.893Z,98581.09
2023-02-03T00:18:08.673Z,98584.00
2023-02-03T00:20:35.403Z,98583.28
2023-02-03T00:23:06.538Z,98576.38
2023-02-03T00:25:33.281Z,98577.09
2023-02-03T00:28:00.182Z,98579.09
2023-02-03T00:30:27.770Z,98581.09
2023-02-03T00:32:54.807Z,98581.28
2023-02-03T00:35:21.996Z,98581.81
2023-02-03T00:37:53.428Z,98575.41
2023-02-03T00:40:22.711Z,98568.50
2023-02-03T00:42:49.480Z,98569.03
2023-02-03T00:45:16.583Z,98577.94
2023-02-03T00:47:43.370Z,98581.38
2023-02-03T00:50:10.720Z,98577.94
2023-02-03T00:52:37.551Z,98584.63
2023-02-03T00:55:05.167Z,98584.63
2023-02-03T00:57:31.900Z,98584.09
2023-02-03T00:59:58.721Z,98589.53
2023-02-03T01:02:25.718Z,98583.38
2023-02-03T01:04:52.574Z,98574.47
2023-02-03T01:07:19.319Z,98579.91
2023-02-03T01:09:46.055Z,98584.63
2023-02-03T01:12:12.711Z,98586.38
2023-02-03T01:14:40.754Z,98573.50
2023-02-03T01:17:07.486Z,98587.84
2023-02-03T01:19:34.354Z,98597.47
2023-02-03T01:22:01.041Z,98603.41
2023-02-03T01:24:30.751Z,98618.47
2023-02-03T01:26:57.462Z,98606.88
2023-02-03T01:29:24.288Z,98597.25
2023-02-03T01:31:51.140Z,98599.22
2023-02-03T01:34:18.524Z,98608.13
2023-02-03T01:36:46.873Z,98588.88
2023-02-03T01:39:13.965Z,98578.72
2023-02-03T01:41:41.243Z,98573.31
2023-02-03T01:44:32.886Z,98565.88
2023-02-03T01:46:59.717Z,98569.84
2023-02-03T01:49:30.215Z,98560.22
2023-02-03T01:51:57.093Z,98558.25
2023-02-03T01:54:27.127Z,98554.03
2023-02-03T01:57:01.039Z,98547.88
2023-02-03T01:59:28.548Z,98544.66
2023-02-03T02:01:56.963Z,98539.94
2023-02-03T02:04:27.489Z,98554.28
2023-02-03T02:06:56.643Z,98558.97
2023-02-03T02:09:24.796Z,98567.13
2023-02-03T02:11:51.506Z,98564.41
2023-02-03T02:14:18.556Z,98558.97
2023-02-03T02:16:58.632Z,98552.06
2023-02-03T02:19:40.572Z,98553.00
2023-02-03T02:22:26.512Z,98541.94
2023-02-03T02:25:18.629Z,98529.56
2023-02-03T02:28:08.149Z,98533.53
2023-02-03T02:30:41.182Z,98523.94
2023-02-03T02:33:30.116Z,98519.75
2023-02-03T02:36:18.753Z,98501.44
2023-02-03T02:38:58.188Z,98487.66
2023-02-03T02:41:48.732Z,98484.94
2023-02-03T02:44:31.204Z,98471.34
2023-02-03T02:47:00.735Z,98476.03
2023-02-03T02:49:47.140Z,98462.22
2023-02-03T02:52:15.720Z,98445.19
2023-02-03T02:54:47.136Z,98438.50
2023-02-03T02:57:15.171Z,98443.72
2023-02-03T02:59:42.741Z,98463.50
2023-02-03T03:02:11.055Z,98465.47
2023-02-03T03:04:39.866Z,98464.75
2023-02-03T03:07:10.197Z,98463.50
2023-02-03T03:09:40.881Z,98457.84
2023-02-03T03:12:12.757Z,98452.63
2023-02-03T03:14:42.235Z,98470.91
2023-02-03T03:17:12.068Z,98480.81
2023-02-03T03:19:43.095Z,98477.91
2023-02-03T03:22:13.746Z,98492.22
2023-02-03T03:24:43.983Z,98488.69
2023-02-03T03:27:20.221Z,98485.03
2023-02-03T03:29:51.286Z,98483.03
2023-02-03T03:32:18.156Z,98470.69
2023-02-03T03:34:44.872Z,98474.34
2023-02-03T03:37:20.708Z,98490.66
2023-02-03T03:39:55.775Z,98477.81
2023-02-03T03:42:38.260Z,98475.09
2023-02-03T03:45:20.010Z,98493.81
2023-02-03T03:48:10.340Z,98500.72
2023-02-03T03:50:57.358Z,98511.06
2023-02-03T03:53:25.605Z,98512.13
2023-02-03T03:55:53.030Z,98494.31
2023-02-03T03:58:31.414Z,98488.88
2023-02-03T04:01:00.767Z,98492.34
2023-02-03T04:03:39.040Z,98486.91
2023-02-03T04:06:06.130Z,98486.59
2023-02-03T04:08:32.779Z,98507.09
2023-02-03T04:10:59.547Z,98522.19
2023-02-03T04:13:26.211Z,98536.25
2023-02-03T04:15:53.028Z,98539.72
2023-02-03T04:18:19.819Z,98547.13
2023-02-03T04:20:46.565Z,98545.16
2023-02-03T04:23:13.294Z,98543.16
2023-02-03T04:25:40.046Z,98556.03
2023-02-03T04:28:06.830Z,98555.53
2023-02-03T04:30:33.782Z,98557.50
2023-02-03T04:33:00.538Z,98562.19
2023-02-03T04:35:27.258Z,98550.09
2023-02-03T04:37:53.908Z,98536.50
2023-02-03T04:40:20.784Z,98540.69
2023-02-03T04:42:47.413Z,98532.53
2023-02-03T04:45:14.195Z,98527.81
2023-02-03T04:47:40.889Z,98521.66
2023-02-03T04:50:08.084Z,98520.41
2023-02-03T04:52:34.799Z,98523.31
2023-02-03T04:55:01.723Z,98510.25
2023-02-03T04:57:28.394Z,98508.25
2023-02-03T04:59:55.177Z,98509.22
2023-02-03T05:02:21.904Z,98535.69
2023-02-03T05:04:48.609Z,98537.16
2023-02-03T05:07:15.364Z,98527.53
2023-02-03T05:09:42.129Z,98526.28
2023-02-03T05:12:08.763Z,98531.72
2023-02-03T05:14:35.499Z,98513.19
2023-02-03T05:17:02.239Z,98521.56
2023-02-03T05:19:29.038Z,98522.28
2023-02-03T05:21:55.887Z,98526.47
2023-02-03T05:24:22.620Z,98523.22
2023-02-03T05:26:49.334Z,98513.41
2023-02-03T05:29:16.098Z,98509.97
2023-02-03T05:31:42.879Z,98498.56
2023-02-03T05:34:09.654Z,98505.47
2023-02-03T05:36:36.285Z,98496.03
2023-02-03T05:39:03.370Z,98505.91
2023-02-03T05:41:48.819Z,98505.91
2023-02-03T05:44:15.632Z,98520.75
2023-02-03T05:46:42.318Z,98534.34
2023-02-03T05:49:09.073Z,98541.25
2023-02-03T05:51:36.070Z,98537.78
2023-02-03T05:54:02.836Z,98548.88
2023-02-03T05:56:29.488Z,98543.44
2023-02-03T05:58:56.313Z,98535.50
2023-02-03T06:01:23.192Z,98521.91
2023-02-03T06:03:50.127Z,98526.81
2023-02-03T06:06:17.325Z,98534.47
2023-02-03T06:08:44.330Z,98535.91
2023-02-03T06:11:11.694Z,98541.88
2023-02-03T06:13:38.848Z,98539.91
2023-02-03T06:16:05.875Z,98544.09
2023-02-03T06:18:32.674Z,98548.28
2023-02-03T06:20:59.363Z,98542.63
2023-02-03T06:23:26.201Z,98540.13
2023-02-03T06:25:52.991Z,98544.31
2023-02-03T06:28:20.090Z,98547.66
2023-02-03T06:30:50.339Z,98553.28
2023-02-03T06:33:17.192Z,98563.59
2023-02-03T06:35:43.921Z,98562.38
2023-02-03T06:38:10.782Z,98556.59
2023-02-03T06:40:37.475Z,98562.34
2023-02-03T06:43:04.217Z,98559.00
2023-02-03T06:45:30.852Z,98581.97
2023-02-03T06:47:57.613Z,98591.59
2023-02-03T06:50:25.177Z,98593.34
2023-02-03T06:52:52.161Z,98601.97
2023-02-03T06:55:18.946Z,98575.19
2023-02-03T06:57:46.776Z,98564.88
2023-02-03T07:00:18.466Z,98551.59
2023-02-03T07:02:46.243Z,98559.00
2023-02-03T07:05:13.156Z,98551.16
2023-02-03T07:07:40.070Z,98561.22
2023-02-03T07:10:07.720Z,98565.38
2023-02-03T07:12:36.537Z,98577.41
2023-02-03T07:15:04.794Z,98588.47
2023-02-03T07:17:31.644Z,98591.41
2023-02-03T07:19:58.359Z,98599.28
2023-02-03T07:22:25.131Z,98603.47
2023-02-03T07:24:51.824Z,98590.41
2023-02-03T07:27:19.926Z,98551.75
2023-02-03T07:29:46.576Z,98547.53
2023-02-03T07:32:13.485Z,98535.47
2023-02-03T07:34:40.281Z,98541.63
2023-02-03T07:37:07.109Z,98542.56
2023-02-03T07:39:34.137Z,98537.38
2023-02-03T07:42:00.999Z,98545.41
2023-02-03T07:44:29.314Z,98551.56
2023-02-03T07:46:56.569Z,98560.94
2023-02-03T07:49:24.041Z,98559.47
2023-02-03T07:51:50.866Z,98539.75
2023-02-03T07:54:17.729Z,98533.59
2023-02-03T07:56:44.672Z,98516.06
2023-02-03T08:01:59.129Z,98537.78
2023-02-03T08:04:25.861Z,98554.78
2023-02-03T08:06:52.765Z,98563.88
2023-02-03T08:12:30.660Z,98564.91
2023-02-03T08:14:57.863Z,98566.41
2023-02-03T08:17:24.958Z,98571.56
2023-02-03T08:19:51.883Z,98574.16
2023-02-03T08:22:19.393Z,98571.06
2023-02-03T08:24:47.083Z,98580.59
2023-02-03T08:27:15.710Z,98567.75
2023-02-03T08:29:43.543Z,98572.41
2023-02-03T08:32:16.606Z,98577.31
2023-02-03T08:34:43.939Z,98569.50
2023-02-03T08:37:12.009Z,98570.31
2023-02-03T08:39:39.310Z,98569.09
2023-02-03T08:42:06.733Z,98580.31
2023-02-03T08:44:34.474Z,98573.16
2023-02-03T08:47:02.000Z,98568.94
2023-02-03T08:49:32.719Z,98578.31
2023-02-03T08:51:59.559Z,98578.16
2023-02-03T08:54:27.523Z,98594.22
2023-02-03T08:56:54.590Z,98596.91
2023-02-03T08:59:21.761Z,98604.78
2023-02-03T09:01:49.184Z,98621.91
2023-02-03T09:04:19.392Z,98612.75
2023-02-03T10:16:39.133Z,98646.50
2023-02-03T10:19:12.212Z,98633.38
2023-02-03T10:21:45.975Z,98629.84
2023-02-03T10:24:20.501Z,98633.47
2023-02-03T10:26:48.004Z,98627.22
2023-02-03T10:29:27.208Z,98617.16
2023-02-03T10:31:57.395Z,98627.66
2023-02-03T10:34:50.461Z,98636.69
2023-02-03T10:37:19.860Z,98639.25
2023-02-03T10:39:48.703Z,98634.91
2023-02-03T10:42:16.554Z,98631.72
2023-02-03T10:44:45.620Z,98629.06
2023-02-03T10:47:18.421Z,98637.59
2023-02-03T10:49:46.070Z,98655.63
2023-02-03T10:52:32.208Z,98663.25
2023-02-03T10:54:59.545Z,98647.44
2023-02-03T10:57:28.471Z,98630.97
2023-02-03T11:00:08.162Z,98631.81
2023-02-03T11:02:35.653Z,98610.25
2023-02-03T11:05:20.545Z,98610.47
2023-02-03T11:07:48.431Z,98597.34
2023-02-03T11:10:44.499Z,98602.69
2023-02-03T11:13:14.097Z,98602.06
2023-02-03T11:16:05.215Z,98603.31
2023-02-03T11:18:48.269Z,98581.75
2023-02-03T11:21:25.850Z,98577.13
2023-02-03T11:23:57.022Z,98568.13
2023-02-03T11:26:30.260Z,98579.53
2023-02-03T11:28:59.482Z,98584.84
2023-02-03T11:31:31.817Z,98563.31
2023-02-03T11:34:05.187Z,98575.88
2023-02-03T11:36:34.551Z,98587.94
2023-02-03T11:39:27.528Z,98605.13
2023-02-03T11:41:55.153Z,98582.59
2023-02-03T11:44:23.388Z,98597.38
2023-02-03T11:46:59.515Z,98599.47
2023-02-03T11:49:26.383Z,98624.03
2023-02-03T11:52:28.722Z,98622.28
2023-02-03T11:55:22.163Z,98606.78
2023-02-03T11:58:07.593Z,98589.44
2023-02-03T12:00:47.117Z,98563.41
2023-02-03T12:03:25.774Z,98564.81
2023-02-03T12:06:11.407Z,98561.63
2023-02-03T12:08:59.547Z,98540.53
2023-02-03T12:11:34.912Z,98529.34
2023-02-03T12:14:13.364Z,98537.13
2023-02-03T12:17:19.488Z,98536.91
2023-02-03T12:20:12.727Z,98539.22
2023-02-03T12:23:26.716Z,98531.94
2023-02-03T12:26:25.708Z,98545.41
2023-02-03T12:28:57.274Z,98550.28
2023-02-03T12:31:54.649Z,98569.25
2023-02-03T12:34:38.405Z,98560.38
2023-02-03T12:37:07.920Z,98561.09
2023-02-03T12:39:45.043Z,98565.69
2023-02-03T12:42:12.069Z,98569.22
2023-02-03T12:44:58.147Z,98557.81
2023-02-03T12:47:30.617Z,98541.88
2023-02-03T12:50:05.537Z,98550.41
2023-02-03T12:52:38.027Z,98546.56
2023-02-03T12:55:14.966Z,98548.06
2023-02-03T12:57:49.247Z,98547.19
2023-02-03T13:00:18.892Z,98538.94
2023-02-03T13:03:29.745Z,98527.44
2023-02-03T13:05:56.367Z,98532.25
2023-02-03T13:08:37.535Z,98530.81
2023-02-03T13:11:23.282Z,98526.38
2023-02-03T13:13:56.642Z,98533.69
2023-02-03T13:16:34.286Z,98517.88
2023-02-03T13:19:06.024Z,98517.03
2023-02-03T13:21:32.795Z,98510.59
2023-02-03T13:23:59.592Z,98519.97
2023-02-03T13:26:57.145Z,98522.16
2023-02-03T13:29:31.200Z,98517.78
2023-02-03T13:32:41.852Z,98500.88
2023-02-03T13:35:33.827Z,98499.44
2023-02-03T13:38:28.667Z,98495.19
2023-02-03T13:41:03.430Z,98494.22
2023-02-03T13:43:38.664Z,98510.50
2023-02-03T13:46:09.442Z,98514.50
2023-02-03T13:48:36.965Z,98509.91
2023-02-03T13:51:07.825Z,98507.25
2023-02-03T13:53:37.534Z,98507.13
2023-02-03T13:56:07.007Z,98519.84
2023-02-03T13:58:39.428Z,98524.16
2023-02-03T14:01:35.381Z,98522.25
2023-02-03T14:04:03.620Z,98538.00
2023-02-03T14:06:36.618Z,98538.19
2023-02-03T14:09:30.955Z,98550.59
2023-02-03T14:12:33.545Z,98546.56
2023-02-03T14:15:05.383Z,98552.59
2023-02-03T14:17:35.188Z,98551.16
2023-02-03T14:20:25.060Z,98558.31
2023-02-03T14:22:57.680Z,98562.72
2023-02-03T14:25:25.135Z,98555.53
2023-02-03T14:28:03.809Z,98563.66
2023-02-03T14:30:30.804Z,98560.44
2023-02-03T14:33:00.247Z,98558.38
2023-02-03T14:35:33.490Z,98561.63
2023-02-03T14:38:14.441Z,98555.25
2023-02-03T14:40:58.514Z,98557.50
2023-02-03T14:43:35.055Z,98560.50
2023-02-03T14:46:40.649Z,98557.66
2023-02-03T14:49:19.861Z,98549.50
2023-02-03T14:52:09.070Z,98544.28
2023-02-03T14:54:48.241Z,98546.06
2023-02-03T14:57:36.972Z,98527.84
2023-02-03T15:00:27.328Z,98531.34
2023-02-03T15:03:12.406Z,98524.53
2023-02-03T15:05:49.551Z,98524.88
2023-02-03T15:08:36.197Z,98521.91
2023-02-03T15:11:43.420Z,98521.50
2023-02-03T15:14:21.133Z,98519.13
2023-02-03T15:16:54.992Z,98533.41
2023-02-03T15:19:28.070Z,98532.91
2023-02-03T15:21:55.742Z,98526.75
2023-02-03T15:24:24.207Z,98523.34
2023-02-03T15:26:56.197Z,98522.88
2023-02-03T15:29:30.184Z,98521.88
2023-02-03T15:32:36.363Z,98519.38
2023-02-03T15:35:05.526Z,98522.34
2023-02-03T15:37:55.036Z,98534.47
2023-02-03T15:40:26.509Z,98538.75
2023-02-03T15:42:56.468Z,98543.41
2023-02-03T15:45:32.582Z,98553.09
2023-02-03T15:48:07.025Z,98549.66
2023-02-03T15:50:56.311Z,98543.50
2023-02-03T15:53:27.735Z,98552.38
2023-02-03T15:56:04.034Z,98556.13
2023-02-03T15:58:40.902Z,98565.56
2023-02-03T16:01:10.314Z,98558.63
2023-02-03T16:03:40.876Z,98565.00
2023-02-03T16:06:10.205Z,98572.66
2023-02-03T16:08:52.068Z,98575.91
2023-02-03T16:11:35.265Z,98569.50
2023-02-03T16:14:07.189Z,98570.75
2023-02-03T16:16:43.742Z,98573.97
2023-02-03T16:19:21.122Z,98569.00
2023-02-03T16:21:57.583Z,98566.03
2023-02-03T16:24:33.560Z,98563.59
2023-02-03T16:27:19.684Z,98559.44
2023-02-03T16:30:05.743Z,98555.25
2023-02-03T16:32:51.173Z,98549.59
2023-02-03T16:35:40.675Z,98550.06
2023-02-03T16:38:37.555Z,98559.47
2023-02-03T16:41:34.988Z,98550.84
2023-02-03T16:44:20.668Z,98559.47
2023-02-03T16:47:06.583Z,98556.03
2023-02-03T16:49:51.648Z,98561.97
2023-02-03T16:52:18.447Z,98564.41
2023-02-03T16:54:45.156Z,98573.78
2023-02-03T16:57:12.335Z,98568.63
2023-02-03T16:59:39.538Z,98579.22
2023-02-03T17:02:06.629Z,98572.81
2023-02-03T17:04:33.445Z,98576.31
2023-02-03T17:07:05.335Z,98579.75
2023-02-03T17:09:35.423Z,98577.53
2023-02-03T17:12:02.970Z,98583.75
2023-02-03T17:14:39.763Z,98567.22
2023-02-03T17:19:57.022Z,98582.50
2023-02-03T17:22:26.464Z,98577.09
2023-02-03T17:24:59.497Z,98585.19
2023-02-03T17:27:27.080Z,98583.22
2023-02-03T17:29:57.067Z,98577.84
2023-02-03T17:32:26.325Z,98578.88
2023-02-03T17:34:52.929Z,98592.03
2023-02-03T17:37:25.527Z,98593.66
2023-02-03T17:54:04.929Z,98608.13
2023-02-03T17:56:31.825Z,98611.25
2023-02-03T17:58:59.636Z,98620.81
2023-02-03T18:01:26.690Z,98618.50
2023-02-03T18:03:55.010Z,98609.31
2023-02-03T18:06:22.115Z,98607.03
2023-02-03T18:08:50.108Z,98608.22
2023-02-03T18:11:17.091Z,98603.72
2023-02-03T18:13:45.055Z,98604.66
2023-02-03T18:16:15.744Z,98599.63
2023-02-03T18:18:42.647Z,98597.81
2023-02-03T18:21:12.288Z,98598.56
2023-02-03T18:23:39.022Z,98600.75
2023-02-03T18:26:06.391Z,98596.75
2023-02-03T18:28:33.105Z,98601.19
2023-02-03T18:31:00.278Z,98616.47
2023-02-03T18:33:26.955Z,98611.97
2023-02-03T18:35:53.541Z,98607.25
2023-02-03T18:38:20.159Z,98617.84
2023-02-03T18:40:46.708Z,98616.06
2023-02-03T18:43:13.320Z,98615.03
2023-02-03T18:45:39.940Z,98623.94
2023-02-03T18:48:06.758Z,98629.56
2023-02-03T18:50:33.460Z,98627.59
2023-02-03T18:53:00.170Z,98632.53
2023-02-03T18:55:26.771Z,98634.50
2023-02-03T18:57:53.507Z,98627.09
2023-02-03T19:00:20.756Z,98629.47
2023-02-03T19:02:48.603Z,98629.47
2023-02-03T19:05:15.243Z,98628.00
2023-02-03T19:07:42.028Z,98629.47
2023-02-03T19:10:08.727Z,98622.06
2023-02-03T19:12:35.459Z,98626.47
2023-02-03T19:15:02.055Z,98628.44
2023-02-03T19:17:28.761Z,98629.19
2023-02-03T19:19:55.415Z,98630.66
2023-02-03T19:22:22.052Z,98635.59
2023-02-03T19:24:48.669Z,98639.53
2023-02-03T19:27:15.219Z,98639.53
2023-02-03T19:29:41.781Z,98639.03
2023-02-03T19:32:09.714Z,98639.03
2023-02-03T19:34:36.387Z,98641.22
2023-02-03T19:37:03.040Z,98638.50
2023-02-03T19:39:32.768Z,98637.25
2023-02-03T19:41:59.689Z,98634.53
2023-02-03T19:44:26.476Z,98648.38
2023-02-03T19:46:57.894Z,98637.47
2023-02-03T19:49:25.719Z,98632.22
2023-02-03T19:51:52.733Z,98637.16
2023-02-03T19:54:19.407Z,98639.88
2023-02-03T19:56:46.055Z,98629.50
2023-02-03T19:59:12.624Z,98642.41
2023-02-03T20:01:39.235Z,98634.75
2023-02-03T20:04:07.621Z,98624.06
2023-02-03T20:06:34.244Z,98624.25
2023-02-03T20:09:01.072Z,98619.56
2023-02-03T20:11:27.924Z,98621.03
2023-02-03T20:13:54.660Z,98632.13
2023-02-03T20:16:21.304Z,98647.00
2023-02-03T20:18:48.042Z,98639.56
2023-02-03T20:21:15.218Z,98640.84
2023-02-03T20:23:42.734Z,98641.56
2023-02-03T20:26:10.060Z,98644.81
2023-02-03T20:28:37.292Z,98646.06
2023-02-03T20:31:04.366Z,98647.31
2023-02-03T20:33:31.178Z,98653.28
2023-02-03T20:35:57.709Z,98660.19
2023-02-03T20:38:28.339Z,98666.38
2023-02-03T20:40:56.254Z,98665.66
2023-02-03T20:43:23.789Z,98671.09
2023-02-03T20:45:51.602Z,98683.44
2023-02-03T20:48:19.896Z,98669.31
2023-02-03T20:50:48.043Z,98674.78
2023-02-03T20:53:16.265Z,98671.53
2023-02-03T20:55:43.031Z,98666.06
2023-02-03T20:58:15.817Z,98669.31
2023-02-03T21:00:42.478Z,98670.06
2023-02-03T21:03:32.609Z,98665.84
2023-02-03T21:05:59.351Z,98656.94
2023-02-03T21:08:26.460Z,98660.63
2023-02-03T21:10:53.137Z,98666.81
2023-02-03T21:13:20.833Z,98675.19
2023-02-03T21:15:48.891Z,98669.72
2023-02-03T21:18:35.019Z,98669.00
2023-02-03T21:21:01.795Z,98668.06
2023-02-03T21:23:32.996Z,98681.16
2023-02-03T21:25:59.659Z,98671.53
2023-02-03T21:28:29.034Z,98683.16
2023-02-03T21:30:57.198Z,98673.50
2023-02-03T21:33:26.915Z,98676.97
2023-02-03T21:35:53.571Z,98670.25
2023-02-03T21:38:20.135Z,98675.72
2023-02-03T21:40:46.795Z,98671.72
2023-02-03T21:43:16.507Z,98673.41
2023-02-03T21:45:43.572Z,98672.16
2023-02-03T21:48:29.831Z,98669.44
2023-02-03T21:50:57.331Z,98672.16
2023-02-03T21:53:35.906Z,98670.91
2023-02-03T21:56:22.443Z,98668.91
2023-02-03T21:58:50.751Z,98679.06
2023-02-03T22:01:18.141Z,98663.97
2023-02-03T22:03:52.095Z,98665.97
2023-02-03T22:06:26.114Z,98677.06
2023-02-03T22:08:56.897Z,98672.34
2023-02-03T22:11:26.051Z,98672.34
2023-02-03T22:13:52.684Z,98662.94
2023-02-03T22:16:19.394Z,98660.22
2023-02-03T22:18:46.406Z,98669.13
2023-02-03T22:21:13.297Z,98671.13
2023-02-03T22:23:40.105Z,98670.38
2023-02-03T22:26:07.263Z,98672.34
2023-02-03T22:28:34.056Z,98669.63
2023-02-03T22:31:00.884Z,98669.13
2023-02-03T22:33:27.538Z,98671.84
2023-02-03T22:35:54.141Z,98675.31
2023-02-03T22:38:20.742Z,98684.41
2023-02-03T22:40:47.471Z,98682.94
2023-02-03T22:43:14.016Z,98676.25
2023-02-03T22:45:40.702Z,98682.94
2023-02-03T22:48:07.358Z,98671.31
2023-02-03T22:50:36.336Z,98669.34
2023-02-03T22:53:04.375Z,98663.16
2023-02-03T22:55:31.455Z,98660.44
2023-02-03T22:57:59.132Z,98672.78
2023-02-03T23:00:26.034Z,98664.63
2023-02-03T23:02:52.651Z,98677.50
2023-02-03T23:05:19.567Z,98659.16
2023-02-03T23:07:46.196Z,98666.59
2023-02-03T23:10:15.662Z,98659.16
2023-02-03T23:12:43.845Z,98673.22
2023-02-03T23:15:10.938Z,98668.06
2023-02-03T23:17:37.714Z,98666.81
2023-02-03T23:20:04.903Z,98667.53
2023-02-03T23:22:31.595Z,98671.03
2023-02-03T23:24:58.227Z,98662.31
2023-02-03T23:27:24.873Z,98665.97
2023-02-03T23:29:51.625Z,98666.50
2023-02-03T23:32:18.397Z,98677.41
2023-02-03T23:35:03.808Z,98675.41
2023-02-03T23:37:30.501Z,98673.41
2023-02-03T23:39:57.188Z,98672.69
2023-02-03T23:42:23.822Z,98661.78
2023-02-03T23:44:50.379Z,98657.59
2023-02-03T23:47:17.020Z,98657.59
2023-02-03T23:49:43.578Z,98654.34
2023-02-03T23:52:10.212Z,98665.25
2023-02-03T23:54:36.790Z,98659.06
2023-02-03T23:57:04.877Z,98669.44
2023-02-03T23:59:31.510Z,98667.25
